Time;durP1;ratioP1;P1;durP2;ratioP2;P2;SDS_P1;SDS_P2;PMS_P1;PMS_P2;Temp;Humidity;BMP_temperature;BMP_pressure;BME280_temperature;BME280_humidity;BME280_pressure;Samples;Min_cycle;Max_cycle;Signal;HPM_P1;HPM_P2
2021/04/16 00:01:37;;;;;;;4.32;2.20;;;4.10;99.90;;;;;;5027132;28;21477;-67
2021/04/16 00:04:03;;;;;;;3.60;1.80;;;4.20;99.90;;;;;;5034562;28;20088;-67
2021/04/16 00:06:29;;;;;;;3.90;2.00;;;4.20;99.90;;;;;;5036078;28;20037;-68
2021/04/16 00:08:55;;;;;;;4.25;2.30;;;4.40;99.90;;;;;;5020602;28;20056;-68
2021/04/16 00:11:24;;;;;;;4.00;2.35;;;4.50;99.90;;;;;;5024096;28;20098;-67
2021/04/16 00:13:50;;;;;;;4.70;2.42;;;4.60;99.90;;;;;;5020558;28;20037;-68
2021/04/16 00:16:20;;;;;;;6.80;2.90;;;4.60;99.90;;;;;;5028971;28;20065;-68
2021/04/16 00:18:48;;;;;;;7.45;2.53;;;4.50;99.90;;;;;;5020996;28;20029;-67
2021/04/16 00:21:14;;;;;;;4.43;2.40;;;4.60;99.90;;;;;;5029971;28;20083;-67
2021/04/16 00:23:40;;;;;;;7.10;2.65;;;4.50;99.90;;;;;;5041507;28;20083;-67
2021/04/16 00:26:07;;;;;;;5.03;2.63;;;4.00;99.90;;;;;;5040728;28;20613;-67
2021/04/16 00:28:33;;;;;;;5.28;2.35;;;3.80;99.90;;;;;;5041418;28;20040;-67
2021/04/16 00:31:08;;;;;;;4.55;2.35;;;3.70;99.90;;;;;;5040392;28;20033;-67
2021/04/16 00:33:34;;;;;;;5.88;2.40;;;3.50;99.90;;;;;;5029618;28;20406;-68
2021/04/16 00:35:59;;;;;;;4.70;2.17;;;3.30;99.90;;;;;;5025905;28;20055;-68
2021/04/16 00:38:26;;;;;;;5.07;2.30;;;3.20;99.90;;;;;;5020588;28;20072;-67
2021/04/16 00:40:57;;;;;;;4.13;2.00;;;3.20;99.90;;;;;;5020763;28;20823;-68
2021/04/16 00:43:27;;;;;;;3.90;2.30;;;3.00;99.90;;;;;;5030273;28;20495;-67
2021/04/16 00:46:07;;;;;;;5.60;3.08;;;3.20;99.90;;;;;;5053202;28;20035;-68
2021/04/16 00:48:36;;;;;;;4.57;2.25;;;3.30;99.90;;;;;;5026341;28;20087;-67
2021/04/16 00:51:05;;;;;;;4.75;2.90;;;3.40;99.90;;;;;;5021672;28;20776;-68
2021/04/16 00:53:34;;;;;;;5.47;2.67;;;3.60;99.90;;;;;;5020992;28;20025;-68
2021/04/16 00:56:00;;;;;;;4.30;2.42;;;3.50;99.90;;;;;;5019985;28;20029;-68
2021/04/16 00:58:29;;;;;;;4.00;2.22;;;3.40;99.90;;;;;;5027100;28;20038;-68
2021/04/16 01:00:57;;;;;;;6.32;2.47;;;3.40;99.90;;;;;;5025383;28;20134;-68
2021/04/16 01:03:24;;;;;;;5.00;2.33;;;3.20;99.90;;;;;;5019411;28;21305;-68
2021/04/16 01:05:54;;;;;;;5.50;2.58;;;3.40;99.90;;;;;;5020622;28;20104;-68
2021/04/16 01:08:20;;;;;;;5.03;2.70;;;3.40;99.90;;;;;;5035935;28;20053;-68
2021/04/16 01:10:50;;;;;;;5.28;2.55;;;3.40;99.90;;;;;;5018845;28;20045;-68
2021/04/16 01:13:16;;;;;;;4.60;2.15;;;3.30;99.90;;;;;;5020928;28;20350;-68
2021/04/16 01:15:42;;;;;;;4.55;2.95;;;3.10;99.90;;;;;;5019920;28;20234;-67
2021/04/16 01:18:15;;;;;;;6.60;2.65;;;3.20;99.90;;;;;;5026570;28;20029;-67
2021/04/16 01:20:44;;;;;;;5.57;2.90;;;3.30;99.90;;;;;;5020012;28;20099;-68
2021/04/16 01:23:42;;;;;;;5.60;2.67;;;3.40;99.90;;;;;;5020844;28;20064;-68
2021/04/16 01:26:10;;;;;;;5.97;2.58;;;3.40;99.90;;;;;;5018839;28;20041;-68
2021/04/16 01:28:36;;;;;;;5.40;2.53;;;3.50;99.90;;;;;;5025290;28;20421;-67
2021/04/16 01:31:10;;;;;;;5.60;2.70;;;3.30;99.90;;;;;;5019546;28;20045;-68
2021/04/16 01:33:37;;;;;;;5.97;3.20;;;3.10;99.90;;;;;;5018924;28;20396;-68
2021/04/16 01:36:05;;;;;;;5.70;2.65;;;3.10;99.90;;;;;;5019236;28;20021;-68
2021/04/16 01:38:34;;;;;;;4.10;2.42;;;3.20;99.90;;;;;;5021007;28;20115;-67
2021/04/16 01:41:00;;;;;;;5.32;2.65;;;3.00;99.90;;;;;;5026423;28;20430;-68
2021/04/16 01:43:29;;;;;;;4.70;2.35;;;3.10;99.90;;;;;;5019127;28;20083;-68
2021/04/16 01:46:02;;;;;;;4.53;2.17;;;3.10;99.90;;;;;;5019508;28;20030;-68
2021/04/16 01:48:45;;;;;;;6.53;2.72;;;3.30;99.90;;;;;;5024476;28;20025;-68
2021/04/16 01:51:14;;;;;;;5.70;2.63;;;3.20;99.90;;;;;;5051386;28;20398;-67
2021/04/16 01:53:41;;;;;;;8.10;2.92;;;3.20;99.90;;;;;;5056857;28;20040;-67
2021/04/16 01:56:07;;;;;;;5.65;2.67;;;3.10;99.90;;;;;;5034797;28;20037;-67
2021/04/16 01:58:33;;;;;;;4.70;2.38;;;3.10;99.90;;;;;;5021698;28;20029;-67
2021/04/16 02:01:00;;;;;;;5.38;2.65;;;3.20;99.90;;;;;;5023773;28;20392;-68
2021/04/16 02:03:26;;;;;;;5.25;2.97;;;3.30;99.90;;;;;;5018533;28;20087;-68
2021/04/16 02:05:52;;;;;;;6.03;3.00;;;3.10;99.90;;;;;;5025632;28;20410;-67
2021/04/16 02:08:19;;;;;;;6.32;2.90;;;3.40;99.90;;;;;;5022176;28;20087;-68
2021/04/16 02:10:45;;;;;;;4.97;2.70;;;3.30;99.90;;;;;;5018759;28;20059;-68
2021/04/16 02:13:11;;;;;;;4.50;2.60;;;3.20;99.90;;;;;;5019289;28;20087;-67
2021/04/16 02:15:37;;;;;;;5.13;2.90;;;3.30;99.90;;;;;;5025053;28;20391;-67
2021/04/16 02:18:05;;;;;;;6.63;2.67;;;3.00;99.90;;;;;;5032134;28;20025;-68
2021/04/16 02:20:31;;;;;;;5.13;3.13;;;2.90;99.90;;;;;;5032287;28;20113;-68
2021/04/16 02:22:56;;;;;;;7.40;2.63;;;2.90;99.90;;;;;;5018291;28;20033;-68
2021/04/16 02:25:22;;;;;;;4.38;2.67;;;2.90;99.90;;;;;;5018162;28;20154;-68
2021/04/16 02:27:48;;;;;;;6.68;2.70;;;2.90;99.90;;;;;;5021893;28;20091;-68
2021/04/16 02:30:30;;;;;;;7.55;3.38;;;2.90;99.90;;;;;;5018377;28;20056;-68
2021/04/16 02:32:56;;;;;;;5.72;3.10;;;2.60;99.90;;;;;;5019404;28;20255;-69
2021/04/16 02:35:23;;;;;;;5.70;2.75;;;2.50;99.90;;;;;;5018377;28;20021;-68
2021/04/16 02:37:49;;;;;;;5.32;2.70;;;2.40;99.90;;;;;;5022124;28;20657;-68
2021/04/16 02:40:17;;;;;;;4.88;2.58;;;2.50;99.90;;;;;;5017793;28;20156;-68
2021/04/16 02:42:43;;;;;;;5.93;2.85;;;2.60;99.90;;;;;;5017730;28;20079;-69
2021/04/16 02:45:13;;;;;;;4.70;2.80;;;2.50;99.90;;;;;;5018543;28;20041;-68
2021/04/16 02:47:39;;;;;;;6.22;3.08;;;2.40;99.90;;;;;;5024525;28;20072;-68
2021/04/16 02:50:10;;;;;;;4.15;2.58;;;2.30;99.90;;;;;;5019877;28;20056;-68
2021/04/16 02:52:35;;;;;;;4.68;2.88;;;2.40;99.90;;;;;;5018145;28;20076;-70
2021/04/16 02:55:02;;;;;;;5.78;3.13;;;2.60;99.90;;;;;;5018773;28;20383;-71
2021/04/16 02:57:27;;;;;;;6.20;3.85;;;2.80;99.90;;;;;;5018749;28;20033;-69
2021/04/16 02:59:53;;;;;;;7.32;3.20;;;3.00;99.90;;;;;;5025019;28;20514;-69
2021/04/16 03:02:19;;;;;;;7.00;2.78;;;2.80;99.90;;;;;;5016361;28;20041;-70
2021/04/16 03:04:45;;;;;;;4.97;2.75;;;2.80;99.90;;;;;;5009580;28;20029;-70
2021/04/16 03:07:11;;;;;;;7.65;2.88;;;2.60;99.90;;;;;;5011045;28;21257;-69
2021/04/16 03:09:37;;;;;;;6.05;3.15;;;2.40;99.90;;;;;;5017413;28;20025;-70
2021/04/16 03:12:03;;;;;;;4.88;2.70;;;2.40;99.90;;;;;;5013235;28;20115;-70
2021/04/16 03:14:29;;;;;;;5.93;3.42;;;2.30;99.90;;;;;;5012375;28;20056;-69
2021/04/16 03:16:54;;;;;;;5.75;3.13;;;2.30;99.90;;;;;;5011135;28;20112;-70
2021/04/16 03:19:20;;;;;;;6.55;3.10;;;2.40;99.90;;;;;;5019138;28;20033;-70
2021/04/16 03:21:46;;;;;;;7.05;4.70;;;2.40;99.90;;;;;;5011881;28;20112;-69
2021/04/16 03:24:11;;;;;;;5.72;3.00;;;2.40;99.90;;;;;;5020479;28;20441;-71
2021/04/16 03:26:38;;;;;;;4.75;2.90;;;2.40;99.90;;;;;;5011144;28;20034;-70
2021/04/16 03:29:04;;;;;;;6.28;3.20;;;2.20;99.90;;;;;;5011626;28;20100;-70
2021/04/16 03:31:31;;;;;;;6.28;3.05;;;2.20;99.90;;;;;;5017549;28;20697;-70
2021/04/16 03:33:58;;;;;;;6.30;3.00;;;2.40;99.90;;;;;;5011537;28;20689;-70
2021/04/16 03:36:25;;;;;;;5.22;2.90;;;2.40;99.90;;;;;;5038897;28;20041;-69
2021/04/16 03:38:52;;;;;;;7.10;3.05;;;2.30;99.90;;;;;;5013577;28;20155;-69
2021/04/16 03:41:18;;;;;;;9.95;3.55;;;2.20;99.90;;;;;;5019849;28;20040;-70
2021/04/16 03:43:44;;;;;;;6.70;2.75;;;2.30;99.90;;;;;;5010195;28;20108;-70
2021/04/16 03:46:10;;;;;;;6.57;3.80;;;2.20;99.90;;;;;;5022403;28;20033;-69
2021/04/16 03:48:36;;;;;;;6.50;3.38;;;2.20;99.90;;;;;;5019032;28;20029;-70
2021/04/16 03:51:03;;;;;;;6.63;3.55;;;2.30;99.90;;;;;;5017687;28;20041;-70
2021/04/16 03:53:29;;;;;;;6.80;3.78;;;2.30;99.90;;;;;;5012210;28;20529;-70
2021/04/16 03:55:55;;;;;;;5.72;3.20;;;2.20;99.90;;;;;;5009251;28;20017;-69
2021/04/16 03:58:21;;;;;;;5.40;3.15;;;2.10;99.90;;;;;;5012051;28;20780;-70
2021/04/16 04:00:47;;;;;;;6.40;3.55;;;1.90;99.90;;;;;;5012622;28;20162;-70
2021/04/16 04:03:13;;;;;;;6.57;3.35;;;1.90;99.90;;;;;;5018703;28;20034;-69
2021/04/16 04:05:39;;;;;;;7.22;3.63;;;2.20;99.90;;;;;;5009578;28;20057;-70
2021/04/16 04:08:06;;;;;;;5.55;3.03;;;2.30;99.90;;;;;;5010799;28;20045;-70
2021/04/16 04:10:38;;;;;;;6.57;3.60;;;2.10;99.90;;;;;;5015472;28;20041;-70
2021/04/16 04:13:11;;;;;;;5.75;3.53;;;2.00;99.90;;;;;;5015883;28;20059;-69
2021/04/16 04:15:38;;;;;;;5.35;2.95;;;1.90;99.90;;;;;;5010726;28;20021;-69
2021/04/16 04:18:07;;;;;;;5.63;3.22;;;1.90;99.90;;;;;;5010585;28;20026;-70
2021/04/16 04:20:35;;;;;;;6.22;3.30;;;2.40;99.90;;;;;;5011712;28;20021;-70
2021/04/16 04:23:02;;;;;;;6.20;2.85;;;2.10;99.90;;;;;;5017284;28;20117;-69
2021/04/16 04:25:30;;;;;;;5.50;3.50;;;2.00;99.90;;;;;;5013831;28;20523;-70
2021/04/16 04:27:57;;;;;;;6.53;3.42;;;2.00;99.90;;;;;;5014202;28;20024;-70
2021/04/16 04:30:27;;;;;;;8.20;3.88;;;1.90;99.90;;;;;;5014236;28;20064;-69
2021/04/16 04:32:54;;;;;;;5.72;3.42;;;1.90;99.90;;;;;;5017415;28;20048;-69
2021/04/16 04:35:20;;;;;;;6.05;3.38;;;2.00;99.90;;;;;;5020369;28;20064;-69
2021/04/16 04:37:46;;;;;;;7.47;3.75;;;2.00;99.90;;;;;;5019446;28;20155;-70
2021/04/16 04:40:12;;;;;;;5.93;3.28;;;1.80;99.90;;;;;;5014669;28;20032;-70
2021/04/16 04:42:38;;;;;;;7.18;3.33;;;1.90;99.90;;;;;;5016506;28;20025;-69
2021/04/16 04:45:06;;;;;;;6.10;3.45;;;1.90;99.90;;;;;;5020404;28;20431;-70
2021/04/16 04:47:31;;;;;;;7.55;3.80;;;2.00;99.90;;;;;;5013745;28;20104;-71
2021/04/16 04:49:57;;;;;;;6.32;2.85;;;2.00;99.90;;;;;;5019229;28;20110;-69
2021/04/16 04:52:26;;;;;;;7.45;3.53;;;2.10;99.90;;;;;;5017554;28;20033;-69
2021/04/16 04:54:54;;;;;;;9.55;3.22;;;2.30;99.90;;;;;;5019852;28;20093;-70
2021/04/16 04:57:23;;;;;;;6.05;3.45;;;2.20;99.90;;;;;;5012383;28;20796;-70
2021/04/16 04:59:48;;;;;;;6.55;3.35;;;2.10;99.90;;;;;;5014017;28;20760;-70
2021/04/16 05:02:16;;;;;;;6.00;3.35;;;2.10;99.90;;;;;;5017096;28;20025;-69
2021/04/16 05:04:42;;;;;;;5.88;2.97;;;2.10;99.90;;;;;;5012887;28;20125;-70
2021/04/16 05:07:08;;;;;;;6.90;3.33;;;2.00;99.90;;;;;;5019479;28;20688;-70
2021/04/16 05:09:33;;;;;;;5.95;3.45;;;1.90;99.90;;;;;;5021395;28;20050;-70
2021/04/16 05:11:59;;;;;;;6.38;3.08;;;1.80;99.90;;;;;;5026729;28;20115;-70
2021/04/16 05:14:26;;;;;;;5.20;2.95;;;1.80;99.90;;;;;;5020512;28;20031;-69
2021/04/16 05:16:52;;;;;;;8.65;3.47;;;1.90;99.90;;;;;;5021129;28;20035;-69
2021/04/16 05:19:18;;;;;;;6.63;3.42;;;2.10;99.90;;;;;;5014344;28;20033;-70
2021/04/16 05:21:43;;;;;;;4.72;2.95;;;2.10;99.90;;;;;;5015256;28;20024;-70
2021/04/16 05:24:11;;;;;;;6.70;3.55;;;2.20;99.90;;;;;;5013834;28;20033;-70
2021/04/16 05:26:38;;;;;;;8.48;2.92;;;2.30;99.90;;;;;;5019888;28;20017;-69
2021/04/16 05:29:05;;;;;;;6.53;3.58;;;2.30;99.90;;;;;;5015606;28;20063;-69
2021/04/16 05:31:32;;;;;;;7.18;3.30;;;2.40;99.90;;;;;;5012983;28;20091;-70
2021/04/16 05:33:58;;;;;;;5.13;2.83;;;2.60;99.90;;;;;;5013217;28;20465;-71
2021/04/16 05:36:24;;;;;;;6.75;3.47;;;2.50;99.90;;;;;;5011565;28;20029;-70
2021/04/16 05:38:50;;;;;;;5.82;3.47;;;2.60;99.90;;;;;;5021138;28;20143;-70
2021/04/16 05:41:17;;;;;;;7.30;3.70;;;2.50;99.90;;;;;;5026078;28;20108;-70
2021/04/16 05:43:43;;;;;;;4.97;3.05;;;2.40;99.90;;;;;;5019834;28;20037;-69
2021/04/16 05:46:09;;;;;;;7.60;3.90;;;2.50;99.90;;;;;;5012627;28;20033;-69
2021/04/16 05:48:35;;;;;;;8.20;3.97;;;2.60;99.90;;;;;;5020668;28;20033;-69
2021/04/16 05:51:01;;;;;;;8.75;3.42;;;2.70;99.90;;;;;;5017801;28;20083;-70
2021/04/16 05:53:27;;;;;;;5.43;3.08;;;2.70;99.90;;;;;;5013444;28;20476;-69
2021/04/16 05:55:52;;;;;;;5.50;3.00;;;2.80;99.90;;;;;;5013672;28;20040;-70
2021/04/16 05:58:18;;;;;;;6.22;3.40;;;2.70;99.90;;;;;;5017583;28;20523;-69
2021/04/16 06:00:44;;;;;;;8.77;3.88;;;2.70;99.90;;;;;;5039692;28;20033;-69
2021/04/16 06:03:10;;;;;;;6.20;3.00;;;2.70;99.90;;;;;;5030200;28;20033;-70
2021/04/16 06:05:37;;;;;;;5.32;3.53;;;2.70;99.90;;;;;;5012765;28;20024;-69
2021/04/16 06:08:04;;;;;;;6.10;2.35;;;2.90;99.90;;;;;;5012845;28;20446;-69
2021/04/16 06:10:30;;;;;;;7.65;3.33;;;3.10;99.90;;;;;;5022769;28;20557;-69
2021/04/16 06:12:56;;;;;;;5.63;3.35;;;3.20;99.90;;;;;;5013011;28;20039;-70
2021/04/16 06:15:25;;;;;;;6.50;3.60;;;3.10;99.90;;;;;;5012099;28;20479;-70
2021/04/16 06:17:51;;;;;;;5.63;3.47;;;3.20;99.90;;;;;;5015111;28;20033;-69
2021/04/16 06:20:20;;;;;;;5.57;3.25;;;3.40;99.90;;;;;;5024337;28;20033;-69
2021/04/16 06:22:49;;;;;;;5.68;3.35;;;3.40;99.90;;;;;;5014893;28;20056;-70
2021/04/16 06:25:20;;;;;;;7.60;3.40;;;3.30;99.90;;;;;;5010777;28;20033;-70
2021/04/16 06:27:46;;;;;;;6.95;3.13;;;3.50;99.90;;;;;;5011682;28;20040;-71
2021/04/16 06:30:13;;;;;;;7.18;3.88;;;3.50;99.90;;;;;;5013961;28;20040;-69
2021/04/16 06:32:39;;;;;;;5.85;3.10;;;3.60;99.90;;;;;;5018011;28;20036;-70
2021/04/16 06:35:06;;;;;;;6.40;3.10;;;3.80;99.90;;;;;;5011248;28;20041;-69
2021/04/16 06:37:31;;;;;;;5.05;2.83;;;4.10;99.80;;;;;;5012966;28;20029;-70
2021/04/16 06:39:57;;;;;;;5.30;3.28;;;4.30;98.70;;;;;;5021652;28;20025;-69
2021/04/16 06:42:28;;;;;;;5.38;2.90;;;4.50;99.20;;;;;;5017280;28;20087;-69
2021/04/16 06:44:57;;;;;;;6.45;2.92;;;4.70;98.40;;;;;;5010515;28;20037;-70
2021/04/16 06:47:31;;;;;;;4.22;2.65;;;5.20;97.90;;;;;;5011980;28;20389;-69
2021/04/16 06:49:59;;;;;;;5.95;3.22;;;6.20;96.50;;;;;;5011506;28;20052;-70
2021/04/16 06:52:37;;;;;;;4.75;2.40;;;7.70;95.90;;;;;;5020340;28;20172;-69
2021/04/16 06:55:20;;;;;;;7.07;2.42;;;8.60;93.30;;;;;;5010196;28;20040;-70
2021/04/16 06:58:17;;;;;;;5.28;2.75;;;9.90;91.70;;;;;;5012570;28;20064;-71
2021/04/16 07:01:08;;;;;;;4.93;2.63;;;11.10;87.80;;;;;;5011079;28;20080;-70
2021/04/16 07:03:41;;;;;;;5.60;3.10;;;11.90;82.30;;;;;;5016301;28;20500;-69
2021/04/16 07:06:24;;;;;;;5.22;2.70;;;11.80;78.10;;;;;;5011146;28;20055;-70
2021/04/16 07:09:04;;;;;;;4.57;2.30;;;12.00;76.40;;;;;;5015120;28;20060;-70
2021/04/16 07:11:39;;;;;;;5.75;2.72;;;12.50;71.20;;;;;;5032181;28;20053;-71
2021/04/16 07:14:36;;;;;;;4.18;2.42;;;13.10;71.20;;;;;;5030544;28;20055;-70
2021/04/16 07:17:03;;;;;;;5.63;2.70;;;12.90;70.40;;;;;;5021836;28;20036;-70
2021/04/16 07:19:30;;;;;;;5.13;2.90;;;12.50;70.20;;;;;;5011310;28;20236;-71
2021/04/16 07:22:01;;;;;;;4.95;2.97;;;12.10;69.90;;;;;;5029422;28;20490;-70
2021/04/16 07:24:27;;;;;;;5.82;2.58;;;12.20;68.60;;;;;;5043100;28;20029;-70
2021/04/16 07:26:59;;;;;;;6.43;2.47;;;13.50;68.60;;;;;;5040287;28;20154;-70
2021/04/16 07:29:46;;;;;;;4.97;2.17;;;13.80;66.10;;;;;;5041512;28;20601;-70
2021/04/16 07:32:15;;;;;;;5.65;2.50;;;13.30;65.10;;;;;;5041716;28;20136;-70
2021/04/16 07:34:47;;;;;;;4.65;2.45;;;10.20;72.40;;;;;;5023209;28;20117;-70
2021/04/16 07:37:19;;;;;;;4.68;2.75;;;8.00;78.90;;;;;;5023502;28;20028;-70
2021/04/16 07:39:59;;;;;;;4.95;2.75;;;7.20;80.70;;;;;;5015835;28;20736;-70
2021/04/16 07:42:35;;;;;;;9.55;2.67;;;6.80;80.20;;;;;;5009891;28;20025;-69
2021/04/16 07:45:24;;;;;;;7.28;3.33;;;6.50;85.50;;;;;;5011433;28;20048;-70
2021/04/16 07:48:15;;;;;;;5.57;3.20;;;6.40;84.00;;;;;;5012733;28;20049;-69
2021/04/16 07:50:46;;;;;;;5.45;2.60;;;6.60;84.30;;;;;;5019541;28;20049;-69
2021/04/16 07:53:36;;;;;;;5.78;2.63;;;6.50;85.60;;;;;;5009629;28;20026;-72
2021/04/16 07:56:20;;;;;;;4.93;2.55;;;6.60;84.50;;;;;;5011115;28;20379;-70
2021/04/16 07:59:01;;;;;;;5.22;2.90;;;6.60;85.60;;;;;;5012579;28;20037;-70
2021/04/16 08:01:29;;;;;;;5.20;2.38;;;6.50;86.70;;;;;;5026233;28;20033;-70
2021/04/16 08:03:59;;;;;;;5.40;2.92;;;6.60;83.10;;;;;;5020931;28;20059;-69
2021/04/16 08:06:28;;;;;;;5.57;3.08;;;6.40;84.10;;;;;;5014777;28;20800;-70
2021/04/16 08:08:53;;;;;;;5.95;2.92;;;6.50;84.60;;;;;;5019516;28;20614;-70
2021/04/16 08:11:25;;;;;;;5.75;2.67;;;6.50;86.60;;;;;;5015258;28;20136;-69
2021/04/16 08:13:56;;;;;;;5.63;3.15;;;6.60;86.70;;;;;;5032625;28;20510;-70
2021/04/16 08:16:29;;;;;;;5.75;2.63;;;6.70;86.70;;;;;;5029430;28;20051;-69
2021/04/16 08:19:19;;;;;;;5.93;3.03;;;6.70;86.40;;;;;;5014623;28;20039;-70
2021/04/16 08:21:51;;;;;;;6.13;3.15;;;6.80;84.80;;;;;;5030128;28;20025;-70
2021/04/16 08:24:37;;;;;;;8.10;2.92;;;6.90;86.10;;;;;;5047254;28;20029;-69
2021/04/16 08:27:26;;;;;;;6.93;2.83;;;6.70;82.90;;;;;;5020440;28;20384;-69
2021/04/16 08:30:07;;;;;;;6.35;3.00;;;6.70;83.30;;;;;;5015677;28;20068;-69
2021/04/16 08:33:21;;;;;;;6.60;2.58;;;6.80;85.80;;;;;;5017714;28;20033;-69
2021/04/16 08:36:01;;;;;;;4.97;2.50;;;7.00;83.70;;;;;;5026717;28;20034;-69
2021/04/16 08:38:31;;;;;;;30.02;4.05;;;6.90;82.70;;;;;;5020138;28;20033;-71
2021/04/16 08:41:01;;;;;;;6.43;2.75;;;7.10;84.90;;;;;;5020020;28;20633;-70
2021/04/16 08:43:38;;;;;;;6.38;2.38;;;9.50;80.20;;;;;;5019984;28;20041;-70
2021/04/16 08:46:32;;;;;;;5.65;3.22;;;10.50;77.20;;;;;;5014857;28;20048;-70
2021/04/16 08:49:05;;;;;;;6.80;2.85;;;12.00;75.60;;;;;;5016777;28;20468;-70
2021/04/16 08:51:35;;;;;;;7.22;2.17;;;12.10;69.30;;;;;;5020446;28;20037;-69
2021/04/16 08:54:15;;;;;;;4.30;2.47;;;12.40;69.30;;;;;;5015594;28;20065;-71
2021/04/16 08:56:52;;;;;;;6.07;2.33;;;12.40;68.30;;;;;;5044143;28;20033;-70
2021/04/16 08:59:21;;;;;;;4.45;2.75;;;13.20;70.00;;;;;;5024710;28;20033;-69
2021/04/16 09:02:06;;;;;;;3.92;2.28;;;12.20;68.50;;;;;;5026131;28;20028;-71
2021/04/16 09:04:31;;;;;;;7.30;2.75;;;12.50;69.30;;;;;;5022945;28;20060;-70
2021/04/16 09:07:00;;;;;;;5.63;2.95;;;12.40;67.90;;;;;;5025920;28;20186;-69
2021/04/16 09:10:00;;;;;;;5.85;3.30;;;12.40;69.00;;;;;;5032167;28;20180;-70
2021/04/16 09:12:40;;;;;;;6.28;3.15;;;12.30;68.30;;;;;;5011849;28;20136;-70
2021/04/16 09:15:28;;;;;;;4.65;2.60;;;13.20;69.70;;;;;;5013485;28;20116;-71
2021/04/16 09:17:54;;;;;;;4.68;2.83;;;11.30;69.40;;;;;;5015719;28;20061;-70
2021/04/16 09:20:35;;;;;;;5.57;2.60;;;11.00;72.30;;;;;;5014272;28;20552;-70
2021/04/16 09:23:03;;;;;;;7.93;4.07;;;10.90;73.10;;;;;;5014737;28;20364;-70
2021/04/16 09:25:43;;;;;;;5.20;2.78;;;10.60;74.10;;;;;;5014168;28;20060;-70
2021/04/16 09:28:24;;;;;;;6.43;3.15;;;9.80;74.90;;;;;;5013694;28;20041;-69
2021/04/16 09:30:54;;;;;;;6.35;3.15;;;9.00;74.60;;;;;;5017575;28;20382;-70
2021/04/16 09:33:35;;;;;;;5.38;2.72;;;8.60;76.10;;;;;;5016051;28;20057;-70
2021/04/16 09:36:03;;;;;;;4.65;2.67;;;8.40;75.40;;;;;;5013890;28;20025;-70
2021/04/16 09:38:39;;;;;;;6.55;2.83;;;8.30;75.90;;;;;;5013868;28;20849;-70
2021/04/16 09:41:17;;;;;;;6.38;2.80;;;8.40;77.90;;;;;;5030596;28;20080;-70
2021/04/16 09:43:45;;;;;;;5.88;3.00;;;8.50;78.60;;;;;;5025927;28;20025;-69
2021/04/16 09:46:35;;;;;;;6.47;3.58;;;8.50;77.90;;;;;;5037939;28;20039;-69
2021/04/16 09:49:23;;;;;;;8.82;3.13;;;8.70;77.80;;;;;;5015502;28;20065;-70
2021/04/16 09:51:50;;;;;;;7.78;3.17;;;8.80;77.20;;;;;;5018070;28;20084;-69
2021/04/16 09:54:21;;;;;;;7.00;3.03;;;8.90;78.00;;;;;;5043940;28;20585;-69
2021/04/16 09:57:06;;;;;;;6.90;2.80;;;9.30;76.80;;;;;;5017643;28;20060;-69
2021/04/16 09:59:36;;;;;;;7.28;3.03;;;9.70;75.70;;;;;;5021327;28;20132;-70
2021/04/16 10:02:12;;;;;;;5.95;2.90;;;9.60;75.30;;;;;;5013989;28;20527;-70
2021/04/16 10:04:49;;;;;;;7.57;3.88;;;9.20;74.30;;;;;;5014388;28;20032;-70
2021/04/16 10:07:18;;;;;;;8.25;3.60;;;9.00;77.50;;;;;;5023589;28;20423;-69
2021/04/16 10:09:43;;;;;;;7.32;2.85;;;9.10;77.10;;;;;;5027678;28;20081;-70
2021/04/16 10:12:22;;;;;;;7.28;3.50;;;9.10;77.30;;;;;;5026185;28;20061;-70
2021/04/16 10:14:48;;;;;;;5.82;2.90;;;9.10;75.60;;;;;;5029874;28;20029;-70
2021/04/16 10:17:14;;;;;;;9.65;3.42;;;9.30;76.50;;;;;;5014331;28;20040;-69
2021/04/16 10:19:43;;;;;;;4.75;2.97;;;9.40;76.40;;;;;;5012303;28;20472;-70
2021/04/16 10:22:09;;;;;;;5.32;2.75;;;9.70;75.00;;;;;;5014518;28;20083;-70
2021/04/16 12:38:35;;;;;;;;;;;13.70;60.80;;;;;;5017023;28;20067;-69
2021/04/16 12:41:07;;;;;;;3.92;1.60;;;13.70;63.30;;;;;;5011308;28;19920;-69
2021/04/16 12:43:34;;;;;;;4.00;1.70;;;13.70;62.10;;;;;;5009890;28;20057;-69
2021/04/16 12:46:01;;;;;;;3.80;1.80;;;13.80;64.00;;;;;;5031982;28;20499;-69
2021/04/16 12:48:26;;;;;;;4.78;1.85;;;13.80;62.10;;;;;;5043382;28;20391;-68
2021/04/16 12:50:53;;;;;;;3.25;1.48;;;13.80;62.40;;;;;;5046580;28;20037;-68
2021/04/16 12:53:20;;;;;;;5.53;1.70;;;14.10;62.80;;;;;;5017501;28;20036;-69
2021/04/16 12:55:46;;;;;;;5.60;1.60;;;14.20;63.10;;;;;;5014563;28;20620;-69
2021/04/16 12:58:20;;;;;;;4.18;1.55;;;14.20;62.10;;;;;;5013993;28;20086;-69
2021/04/16 13:00:48;;;;;;;3.65;1.52;;;14.20;63.80;;;;;;5012833;28;20095;-69
2021/04/16 13:03:16;;;;;;;3.80;1.55;;;14.50;64.30;;;;;;5022411;28;20064;-69
2021/04/16 13:05:43;;;;;;;2.85;1.65;;;14.40;61.00;;;;;;5016284;28;20120;-69
2021/04/16 13:08:09;;;;;;;4.53;1.50;;;14.20;61.30;;;;;;5015562;28;20111;-69
2021/04/16 13:10:35;;;;;;;4.32;1.70;;;14.10;61.00;;;;;;5038524;28;20037;-69
2021/04/16 13:13:02;;;;;;;4.28;1.75;;;14.10;59.40;;;;;;5035623;28;20107;-68
2021/04/16 13:15:28;;;;;;;2.75;1.35;;;14.10;61.00;;;;;;5014581;28;20052;-69
2021/04/16 13:18:00;;;;;;;2.30;1.40;;;14.20;62.40;;;;;;5019045;28;20504;-68
2021/04/16 13:20:28;;;;;;;2.55;1.42;;;14.20;60.30;;;;;;5025380;28;20361;-69
2021/04/16 13:22:54;;;;;;;4.72;1.83;;;14.20;60.40;;;;;;5023417;28;20025;-69
2021/04/16 13:25:24;;;;;;;3.50;1.55;;;14.50;60.30;;;;;;5016996;28;20048;-69
2021/04/16 13:27:51;;;;;;;2.58;1.00;;;14.90;59.50;;;;;;5014183;28;20025;-69
2021/04/16 13:30:21;;;;;;;2.63;1.40;;;14.50;59.40;;;;;;5014505;28;20037;-69
2021/04/16 13:32:51;;;;;;;3.35;1.48;;;14.30;58.80;;;;;;5022397;28;20464;-69
2021/04/16 13:35:23;;;;;;;2.85;1.45;;;14.40;58.20;;;;;;5027600;28;20096;-69
2021/04/16 13:37:49;;;;;;;3.90;1.33;;;14.30;57.80;;;;;;5013622;28;20033;-68
2021/04/16 13:40:15;;;;;;;2.92;1.40;;;14.50;58.90;;;;;;5012015;28;20212;-69
2021/04/16 13:42:41;;;;;;;2.55;1.20;;;14.70;58.50;;;;;;5016293;28;20057;-69
2021/04/16 13:45:08;;;;;;;2.80;1.25;;;14.70;57.70;;;;;;5019719;28;20117;-68
2021/04/16 13:47:40;;;;;;;3.63;1.75;;;14.80;60.00;;;;;;5019763;28;20033;-69
2021/04/16 13:50:06;;;;;;;3.63;1.45;;;14.70;59.60;;;;;;5013137;28;20045;-68
2021/04/16 13:52:32;;;;;;;4.20;1.88;;;14.90;59.30;;;;;;5015534;28;20072;-69
2021/04/16 13:54:58;;;;;;;3.63;1.73;;;14.70;57.00;;;;;;5022791;28;20422;-69
2021/04/16 13:57:23;;;;;;;3.80;1.63;;;14.90;60.10;;;;;;5041584;28;20029;-69
2021/04/16 13:59:49;;;;;;;3.85;1.38;;;15.30;56.90;;;;;;5018487;28;20594;-69
2021/04/16 14:02:21;;;;;;;3.17;1.40;;;14.80;57.10;;;;;;5028888;28;20048;-70
2021/04/16 14:04:48;;;;;;;3.75;1.45;;;14.90;58.10;;;;;;5012997;28;21684;-70
2021/04/16 14:07:17;;;;;;;3.78;1.88;;;15.00;58.70;;;;;;5012341;28;20680;-70
2021/04/16 14:09:42;;;;;;;5.20;1.13;;;15.50;59.10;;;;;;5017944;28;20025;-70
2021/04/16 14:12:10;;;;;;;5.03;1.65;;;15.60;58.40;;;;;;5014904;28;20067;-71
2021/04/16 14:14:36;;;;;;;4.13;1.83;;;15.40;57.90;;;;;;5013384;28;20036;-69
2021/04/16 14:17:09;;;;;;;4.00;1.38;;;15.30;56.30;;;;;;5012773;28;20447;-70
2021/04/16 14:20:02;;;;;;;2.92;1.10;;;15.20;56.70;;;;;;5044947;28;20021;-71
2021/04/16 14:22:42;;;;;;;2.58;1.38;;;15.30;56.20;;;;;;5040635;28;20030;-70
2021/04/16 14:25:11;;;;;;;2.10;0.93;;;15.10;55.90;;;;;;5025464;28;20121;-70
2021/04/16 14:27:37;;;;;;;2.38;1.02;;;14.90;56.30;;;;;;5043386;28;20182;-70
2021/04/16 14:30:13;;;;;;;3.88;1.60;;;15.00;56.00;;;;;;5045173;28;20491;-70
2021/04/16 14:32:39;;;;;;;5.88;1.40;;;15.10;55.60;;;;;;5027802;28;20037;-71
2021/04/16 14:35:05;;;;;;;5.50;1.25;;;15.00;56.40;;;;;;5018172;28;20547;-70
2021/04/16 14:37:32;;;;;;;3.95;1.20;;;14.90;55.90;;;;;;5015197;28;20026;-70
2021/04/16 14:39:58;;;;;;;2.72;1.23;;;15.10;58.10;;;;;;5012305;28;20120;-71
2021/04/16 14:42:24;;;;;;;3.10;1.35;;;15.10;56.60;;;;;;5025919;28;20484;-71
2021/04/16 14:44:49;;;;;;;4.25;1.17;;;15.30;55.70;;;;;;5043330;28;20027;-72
2021/04/16 14:47:15;;;;;;;2.03;1.08;;;15.20;56.00;;;;;;5032372;28;20025;-70
2021/04/16 14:49:41;;;;;;;1.98;0.93;;;15.00;56.70;;;;;;5034281;28;20060;-70
2021/04/16 14:52:10;;;;;;;3.85;1.27;;;15.50;56.50;;;;;;5035150;28;20116;-70
2021/04/16 14:54:50;;;;;;;5.47;1.25;;;15.60;57.50;;;;;;5012802;28;20430;-72
2021/04/16 14:57:24;;;;;;;2.90;1.27;;;15.60;56.00;;;;;;5014036;28;20018;-71
2021/04/16 14:59:50;;;;;;;7.18;1.20;;;14.90;54.50;;;;;;5011742;28;20037;-71
2021/04/16 15:02:15;;;;;;;2.55;1.20;;;14.90;56.20;;;;;;5017097;28;20119;-71
2021/04/16 15:04:41;;;;;;;2.95;0.98;;;14.80;55.60;;;;;;5043728;28;20667;-73
2021/04/16 15:07:09;;;;;;;4.35;1.20;;;14.90;56.20;;;;;;5043136;28;20025;-70
2021/04/16 15:09:49;;;;;;;5.68;1.67;;;14.90;57.10;;;;;;5042046;28;20083;-71
2021/04/16 15:12:20;;;;;;;3.80;1.63;;;15.10;56.60;;;;;;5026813;28;20647;-71
2021/04/16 15:14:47;;;;;;;3.08;1.42;;;15.00;54.70;;;;;;5012810;28;20029;-70
2021/04/16 15:17:16;;;;;;;3.50;1.20;;;14.60;54.00;;;;;;5012362;28;20030;-70
2021/04/16 15:19:48;;;;;;;3.03;1.17;;;14.70;55.20;;;;;;5011533;28;20037;-70
2021/04/16 15:22:20;;;;;;;2.88;1.77;;;14.90;56.30;;;;;;5014339;28;20032;-72